sensor_id;sensor_type;location;lat;lon;timestamp;pressure;altitude;pressure_sealevel;temperature;humidity
8047;BME280;74083;42.516;23.358;2024-01-07T00:02:09;87012.19;;;7.17;67.18
8047;BME280;74083;42.516;23.358;2024-01-07T00:04:54;87010.34;;;7.19;67.40
8047;BME280;74083;42.516;23.358;2024-01-07T00:07:40;86997.97;;;7.18;67.55
8047;BME280;74083;42.516;23.358;2024-01-07T00:10:25;86995.56;;;7.16;67.86
8047;BME280;74083;42.516;23.358;2024-01-07T00:13:11;86995.31;;;7.19;67.68
8047;BME280;74083;42.516;23.358;2024-01-07T00:15:58;86992.03;;;7.19;68.23
8047;BME280;74083;42.516;23.358;2024-01-07T00:18:43;86982.94;;;7.18;68.43
8047;BME280;74083;42.516;23.358;2024-01-07T00:21:29;86973.03;;;7.16;68.56
8047;BME280;74083;42.516;23.358;2024-01-07T00:24:15;86971.31;;;7.17;68.47
8047;BME280;74083;42.516;23.358;2024-01-07T00:27:01;86982.94;;;7.18;67.85
8047;BME280;74083;42.516;23.358;2024-01-07T00:29:46;86960.41;;;7.18;68.03
8047;BME280;74083;42.516;23.358;2024-01-07T00:32:33;86937.19;;;7.16;68.33
8047;BME280;74083;42.516;23.358;2024-01-07T00:35:19;86947.06;;;7.17;68.42
8047;BME280;74083;42.516;23.358;2024-01-07T00:38:05;86941.28;;;7.17;68.68
8047;BME280;74083;42.516;23.358;2024-01-07T00:40:50;86937.06;;;7.17;68.49
8047;BME280;74083;42.516;23.358;2024-01-07T00:43:35;86928.63;;;7.18;68.14
8047;BME280;74083;42.516;23.358;2024-01-07T00:46:21;86919.41;;;7.19;68.09
8047;BME280;74083;42.516;23.358;2024-01-07T00:49:08;86910.16;;;7.19;67.62
8047;BME280;74083;42.516;23.358;2024-01-07T00:51:54;86897.53;;;7.21;67.79
8047;BME280;74083;42.516;23.358;2024-01-07T00:54:40;86897.53;;;7.21;68.02
8047;BME280;74083;42.516;23.358;2024-01-07T00:57:25;86895.03;;;7.21;67.48
8047;BME280;74083;42.516;23.358;2024-01-07T01:00:12;86897.53;;;7.21;67.60
8047;BME280;74083;42.516;23.358;2024-01-07T01:02:57;86897.38;;;7.22;67.58
8047;BME280;74083;42.516;23.358;2024-01-07T01:05:46;86896.63;;;7.22;67.55
8047;BME280;74083;42.516;23.358;2024-01-07T01:08:31;86890.66;;;7.23;67.49
8047;BME280;74083;42.516;23.358;2024-01-07T01:11:17;86891.47;;;7.23;67.16
8047;BME280;74083;42.516;23.358;2024-01-07T01:14:02;86881.44;;;7.23;67.20
8047;BME280;74083;42.516;23.358;2024-01-07T01:16:48;86860.59;;;7.23;67.24
8047;BME280;74083;42.516;23.358;2024-01-07T01:19:33;86858.09;;;7.23;67.64
8047;BME280;74083;42.516;23.358;2024-01-07T01:22:20;86853.09;;;7.23;67.60
8047;BME280;74083;42.516;23.358;2024-01-07T01:25:06;86836.34;;;7.23;67.85
8047;BME280;74083;42.516;23.358;2024-01-07T01:27:52;86840.47;;;7.24;67.54
8047;BME280;74083;42.516;23.358;2024-01-07T01:30:38;86837.16;;;7.24;67.22
8047;BME280;74083;42.516;23.358;2024-01-07T01:33:24;86834.50;;;7.25;67.15
8047;BME280;74083;42.516;23.358;2024-01-07T01:36:10;86834.50;;;7.25;66.63
8047;BME280;74083;42.516;23.358;2024-01-07T01:38:58;86839.50;;;7.25;66.64
8047;BME280;74083;42.516;23.358;2024-01-07T01:41:43;86833.75;;;7.25;66.58
8047;BME280;74083;42.516;23.358;2024-01-07T01:44:29;86832.78;;;7.26;65.88
8047;BME280;74083;42.516;23.358;2024-01-07T01:47:16;86813.69;;;7.25;66.15
8047;BME280;74083;42.516;23.358;2024-01-07T01:50:02;86802.75;;;7.26;66.22
8047;BME280;74083;42.516;23.358;2024-01-07T01:52:49;86807.75;;;7.26;66.40
8047;BME280;74083;42.516;23.358;2024-01-07T01:55:36;86806.84;;;7.27;66.32
8047;BME280;74083;42.516;23.358;2024-01-07T01:58:23;86797.72;;;7.26;66.97
8047;BME280;74083;42.516;23.358;2024-01-07T02:01:09;86806.94;;;7.25;66.55
8047;BME280;74083;42.516;23.358;2024-01-07T02:03:55;86806.94;;;7.25;66.14
8047;BME280;74083;42.516;23.358;2024-01-07T02:06:40;86809.34;;;7.27;66.23
8047;BME280;74083;42.516;23.358;2024-01-07T02:09:26;86809.47;;;7.25;66.06
8047;BME280;74083;42.516;23.358;2024-01-07T02:12:12;86806.03;;;7.26;66.53
8047;BME280;74083;42.516;23.358;2024-01-07T02:14:58;86780.19;;;7.26;65.88
8047;BME280;74083;42.516;23.358;2024-01-07T02:17:44;86760.16;;;7.26;66.81
8047;BME280;74083;42.516;23.358;2024-01-07T02:20:29;86741.19;;;7.23;66.59
8047;BME280;74083;42.516;23.358;2024-01-07T02:23:14;86730.09;;;7.26;66.67
8047;BME280;74083;42.516;23.358;2024-01-07T02:26:01;86711.78;;;7.25;66.99
8047;BME280;74083;42.516;23.358;2024-01-07T02:28:46;86733.56;;;7.25;66.23
8047;BME280;74083;42.516;23.358;2024-01-07T02:31:32;86721.69;;;7.27;66.81
8047;BME280;74083;42.516;23.358;2024-01-07T02:34:17;86721.69;;;7.27;66.93
8047;BME280;74083;42.516;23.358;2024-01-07T02:37:03;86733.41;;;7.26;66.48
8047;BME280;74083;42.516;23.358;2024-01-07T02:39:49;86737.50;;;7.27;66.64
8047;BME280;74083;42.516;23.358;2024-01-07T02:42:36;86740.00;;;7.27;66.70
8047;BME280;74083;42.516;23.358;2024-01-07T02:45:22;86751.75;;;7.27;66.74
8047;BME280;74083;42.516;23.358;2024-01-07T02:48:07;86735.91;;;7.26;66.65
8047;BME280;74083;42.516;23.358;2024-01-07T02:50:52;86747.66;;;7.26;66.51
8047;BME280;74083;42.516;23.358;2024-01-07T02:53:38;86746.72;;;7.27;66.32
8047;BME280;74083;42.516;23.358;2024-01-07T02:56:23;86740.91;;;7.26;66.75
8047;BME280;74083;42.516;23.358;2024-01-07T02:59:10;86744.34;;;7.25;66.94
8047;BME280;74083;42.516;23.358;2024-01-07T03:01:56;86748.28;;;7.28;66.96
8047;BME280;74083;42.516;23.358;2024-01-07T03:04:43;86751.75;;;7.27;66.86
8047;BME280;74083;42.516;23.358;2024-01-07T03:07:28;86744.88;;;7.29;67.70
8047;BME280;74083;42.516;23.358;2024-01-07T03:10:14;86749.34;;;7.25;69.64
8047;BME280;74083;42.516;23.358;2024-01-07T03:13:00;86756.88;;;7.25;69.38
8047;BME280;74083;42.516;23.358;2024-01-07T03:15:48;86754.25;;;7.27;68.85
8047;BME280;74083;42.516;23.358;2024-01-07T03:18:34;86764.09;;;7.28;69.64
8047;BME280;74083;42.516;23.358;2024-01-07T03:21:20;86765.19;;;7.26;70.29
8047;BME280;74083;42.516;23.358;2024-01-07T03:24:06;86761.88;;;7.25;71.19
8047;BME280;74083;42.516;23.358;2024-01-07T03:26:51;86758.59;;;7.25;71.27
8047;BME280;74083;42.516;23.358;2024-01-07T03:29:37;86753.59;;;7.25;71.31
8047;BME280;74083;42.516;23.358;2024-01-07T03:32:24;86740.41;;;7.23;70.46
8047;BME280;74083;42.516;23.358;2024-01-07T03:35:10;86736.19;;;7.23;70.73
8047;BME280;74083;42.516;23.358;2024-01-07T03:37:57;86724.72;;;7.21;70.26
8047;BME280;74083;42.516;23.358;2024-01-07T03:40:42;86720.50;;;7.21;70.73
8047;BME280;74083;42.516;23.358;2024-01-07T03:43:28;86726.31;;;7.22;70.36
8047;BME280;74083;42.516;23.358;2024-01-07T03:46:14;86724.72;;;7.21;70.67
8047;BME280;74083;42.516;23.358;2024-01-07T03:49:01;86715.63;;;7.20;71.10
8047;BME280;74083;42.516;23.358;2024-01-07T03:51:47;86709.06;;;7.19;71.38
8047;BME280;74083;42.516;23.358;2024-01-07T03:54:32;86699.97;;;7.18;70.92
8047;BME280;74083;42.516;23.358;2024-01-07T03:57:17;86691.53;;;7.19;70.72
8047;BME280;74083;42.516;23.358;2024-01-07T04:00:04;86683.22;;;7.18;69.98
8047;BME280;74083;42.516;23.358;2024-01-07T04:02:50;86684.00;;;7.19;70.56
8047;BME280;74083;42.516;23.358;2024-01-07T04:05:37;86684.00;;;7.19;69.90
8047;BME280;74083;42.516;23.358;2024-01-07T04:08:23;86673.06;;;7.20;69.97
8047;BME280;74083;42.516;23.358;2024-01-07T04:11:08;86664.75;;;7.19;69.33
8047;BME280;74083;42.516;23.358;2024-01-07T04:13:54;86669.75;;;7.19;69.00
8047;BME280;74083;42.516;23.358;2024-01-07T04:16:39;86669.75;;;7.19;68.53
8047;BME280;74083;42.516;23.358;2024-01-07T04:19:25;86668.03;;;7.20;68.50
8047;BME280;74083;42.516;23.358;2024-01-07T04:22:11;86662.25;;;7.19;69.24
8047;BME280;74083;42.516;23.358;2024-01-07T04:24:57;86648.00;;;7.20;69.18
8047;BME280;74083;42.516;23.358;2024-01-07T04:27:42;86648.81;;;7.20;68.73
8047;BME280;74083;42.516;23.358;2024-01-07T04:30:28;86643.94;;;7.19;69.28
8047;BME280;74083;42.516;23.358;2024-01-07T04:33:14;86647.22;;;7.19;68.77
8047;BME280;74083;42.516;23.358;2024-01-07T04:35:59;86638.16;;;7.18;69.14
8047;BME280;74083;42.516;23.358;2024-01-07T04:38:46;86628.94;;;7.19;69.03
8047;BME280;74083;42.516;23.358;2024-01-07T04:41:32;86632.34;;;7.18;69.77
8047;BME280;74083;42.516;23.358;2024-01-07T04:44:17;86631.72;;;7.16;69.52
8047;BME280;74083;42.516;23.358;2024-01-07T04:47:03;86635.13;;;7.15;69.60
8047;BME280;74083;42.516;23.358;2024-01-07T04:49:49;86636.84;;;7.14;69.33
8047;BME280;74083;42.516;23.358;2024-01-07T04:52:34;86637.75;;;7.13;69.26
8047;BME280;74083;42.516;23.358;2024-01-07T04:55:21;86639.50;;;7.13;69.57
8047;BME280;74083;42.516;23.358;2024-01-07T04:58:07;86644.63;;;7.11;69.32
8047;BME280;74083;42.516;23.358;2024-01-07T05:00:52;86642.25;;;7.10;69.15
8047;BME280;74083;42.516;23.358;2024-01-07T05:03:37;86634.75;;;7.10;69.30
8047;BME280;74083;42.516;23.358;2024-01-07T05:06:23;86627.25;;;7.10;69.10
8047;BME280;74083;42.516;23.358;2024-01-07T05:09:08;86632.25;;;7.10;68.88
8047;BME280;74083;42.516;23.358;2024-01-07T05:11:55;86632.38;;;7.08;68.92
8047;BME280;74083;42.516;23.358;2024-01-07T05:14:41;86625.66;;;7.09;68.79
8047;BME280;74083;42.516;23.358;2024-01-07T05:17:29;86624.06;;;7.08;68.79
8047;BME280;74083;42.516;23.358;2024-01-07T05:20:15;86619.34;;;7.05;68.33
8047;BME280;74083;42.516;23.358;2024-01-07T05:23:00;86616.72;;;7.06;68.38
8047;BME280;74083;42.516;23.358;2024-01-07T05:25:46;86619.34;;;7.05;68.63
8047;BME280;74083;42.516;23.358;2024-01-07T05:28:32;86628.44;;;7.06;68.83
8047;BME280;74083;42.516;23.358;2024-01-07T05:31:18;86630.94;;;7.06;68.44
8047;BME280;74083;42.516;23.358;2024-01-07T05:34:05;86625.81;;;7.07;68.10
8047;BME280;74083;42.516;23.358;2024-01-07T05:36:50;86632.53;;;7.07;67.87
8047;BME280;74083;42.516;23.358;2024-01-07T05:39:36;86635.81;;;7.07;68.29
8047;BME280;74083;42.516;23.358;2024-01-07T05:42:21;86641.59;;;7.08;68.33
8047;BME280;74083;42.516;23.358;2024-01-07T05:45:08;86654.25;;;7.06;67.99
8047;BME280;74083;42.516;23.358;2024-01-07T05:47:54;86650.84;;;7.07;68.29
8047;BME280;74083;42.516;23.358;2024-01-07T05:50:39;86654.13;;;7.08;67.95
8047;BME280;74083;42.516;23.358;2024-01-07T05:53:25;86656.63;;;7.08;68.42
8047;BME280;74083;42.516;23.358;2024-01-07T05:56:10;86654.91;;;7.08;67.83
8047;BME280;74083;42.516;23.358;2024-01-07T05:58:56;86646.59;;;7.08;68.18
8047;BME280;74083;42.516;23.358;2024-01-07T06:01:43;86641.59;;;7.08;68.14
8047;BME280;74083;42.516;23.358;2024-01-07T06:04:29;86632.53;;;7.07;68.16
8047;BME280;74083;42.516;23.358;2024-01-07T06:07:14;86642.53;;;7.07;67.93
8047;BME280;74083;42.516;23.358;2024-01-07T06:10:00;86635.94;;;7.06;67.95
8047;BME280;74083;42.516;23.358;2024-01-07T06:12:46;86635.03;;;7.07;67.88
8047;BME280;74083;42.516;23.358;2024-01-07T06:15:31;86631.72;;;7.06;67.75
8047;BME280;74083;42.516;23.358;2024-01-07T06:18:18;86634.09;;;7.08;67.91
8047;BME280;74083;42.516;23.358;2024-01-07T06:21:04;86629.88;;;7.08;67.94
8047;BME280;74083;42.516;23.358;2024-01-07T06:23:50;86631.56;;;7.08;68.05
8047;BME280;74083;42.516;23.358;2024-01-07T06:26:35;86631.56;;;7.08;68.01
8047;BME280;74083;42.516;23.358;2024-01-07T06:29:21;86631.56;;;7.08;67.79
8047;BME280;74083;42.516;23.358;2024-01-07T06:32:06;86635.81;;;7.07;67.74
8047;BME280;74083;42.516;23.358;2024-01-07T06:34:55;86639.25;;;7.06;67.52
8047;BME280;74083;42.516;23.358;2024-01-07T06:37:41;86641.75;;;7.06;67.54
8047;BME280;74083;42.516;23.358;2024-01-07T06:40:26;86645.97;;;7.06;67.72
8047;BME280;74083;42.516;23.358;2024-01-07T06:43:11;86645.16;;;7.05;68.02
8047;BME280;74083;42.516;23.358;2024-01-07T06:45:57;86640.31;;;7.04;67.85
8047;BME280;74083;42.516;23.358;2024-01-07T06:48:43;86646.09;;;7.04;67.86
8047;BME280;74083;42.516;23.358;2024-01-07T06:51:30;86645.44;;;7.02;67.99
8047;BME280;74083;42.516;23.358;2024-01-07T06:54:16;86649.66;;;7.02;68.27
8047;BME280;74083;42.516;23.358;2024-01-07T06:57:01;86643.19;;;6.99;68.25
8047;BME280;74083;42.516;23.358;2024-01-07T06:59:46;86639.00;;;7.00;67.62
8047;BME280;74083;42.516;23.358;2024-01-07T07:02:32;86655.59;;;7.01;67.48
8047;BME280;74083;42.516;23.358;2024-01-07T07:05:18;86653.38;;;6.98;67.33
8047;BME280;74083;42.516;23.358;2024-01-07T07:08:05;86655.06;;;6.97;67.15
8047;BME280;74083;42.516;23.358;2024-01-07T07:10:51;86643.34;;;6.98;67.03
8047;BME280;74083;42.516;23.358;2024-01-07T07:13:36;86631.75;;;6.97;66.95
8047;BME280;74083;42.516;23.358;2024-01-07T07:16:23;86632.16;;;6.92;66.45
8047;BME280;74083;42.516;23.358;2024-01-07T07:19:09;86647.31;;;6.91;66.02
8047;BME280;74083;42.516;23.358;2024-01-07T07:21:58;86639.81;;;6.91;66.10
8047;BME280;74083;42.516;23.358;2024-01-07T07:24:45;86635.75;;;6.90;65.93
8047;BME280;74083;42.516;23.358;2024-01-07T07:27:31;86629.16;;;6.89;66.00
8047;BME280;74083;42.516;23.358;2024-01-07T07:30:18;86625.84;;;6.88;65.82
8047;BME280;74083;42.516;23.358;2024-01-07T07:33:03;86621.63;;;6.89;66.21
8047;BME280;74083;42.516;23.358;2024-01-07T07:35:49;86624.13;;;6.89;66.38
8047;BME280;74083;42.516;23.358;2024-01-07T07:38:35;86612.16;;;6.83;66.54
8047;BME280;74083;42.516;23.358;2024-01-07T07:41:22;86610.31;;;6.85;66.24
8047;BME280;74083;42.516;23.358;2024-01-07T07:44:08;86604.66;;;6.83;66.05
8047;BME280;74083;42.516;23.358;2024-01-07T07:46:54;86596.88;;;6.86;66.41
8047;BME280;74083;42.516;23.358;2024-01-07T07:49:39;86587.56;;;6.78;65.98
8047;BME280;74083;42.516;23.358;2024-01-07T07:52:25;86589.66;;;6.83;65.88
8047;BME280;74083;42.516;23.358;2024-01-07T07:55:10;86595.28;;;6.85;65.43
8047;BME280;74083;42.516;23.358;2024-01-07T07:57:57;86605.31;;;6.85;65.50
8047;BME280;74083;42.516;23.358;2024-01-07T08:00:43;86601.88;;;6.86;65.45
8047;BME280;74083;42.516;23.358;2024-01-07T08:03:28;86605.19;;;6.86;65.78
8047;BME280;74083;42.516;23.358;2024-01-07T08:06:15;86600.81;;;6.88;65.70
8047;BME280;74083;42.516;23.358;2024-01-07T08:09:00;86611.63;;;6.89;65.63
8047;BME280;74083;42.516;23.358;2024-01-07T08:11:46;86590.16;;;6.86;66.10
8047;BME280;74083;42.516;23.358;2024-01-07T08:14:34;86600.03;;;6.88;65.65
8047;BME280;74083;42.516;23.358;2024-01-07T08:17:19;86608.34;;;6.88;65.70
8047;BME280;74083;42.516;23.358;2024-01-07T08:20:06;86612.53;;;6.88;65.93
8047;BME280;74083;42.516;23.358;2024-01-07T08:22:53;86615.72;;;6.90;65.78
8047;BME280;74083;42.516;23.358;2024-01-07T08:25:38;86614.66;;;6.92;65.94
8047;BME280;74083;42.516;23.358;2024-01-07T08:28:24;86607.94;;;6.93;65.89
8047;BME280;74083;42.516;23.358;2024-01-07T08:31:11;86620.56;;;6.91;66.07
8047;BME280;74083;42.516;23.358;2024-01-07T08:33:57;86613.72;;;6.93;65.87
8047;BME280;74083;42.516;23.358;2024-01-07T08:36:43;86618.97;;;7.00;65.93
8047;BME280;74083;42.516;23.358;2024-01-07T08:39:29;86611.72;;;6.97;66.02
8047;BME280;74083;42.516;23.358;2024-01-07T08:42:15;86615.16;;;6.96;66.31
8047;BME280;74083;42.516;23.358;2024-01-07T08:45:01;86595.00;;;6.97;66.97
8047;BME280;74083;42.516;23.358;2024-01-07T08:47:49;86606.06;;;6.95;67.70
8047;BME280;74083;42.516;23.358;2024-01-07T08:50:35;86596.09;;;6.85;68.84
8047;BME280;74083;42.516;23.358;2024-01-07T08:53:20;86589.66;;;6.83;69.87
8047;BME280;74083;42.516;23.358;2024-01-07T08:56:06;86587.25;;;6.81;70.20
8047;BME280;74083;42.516;23.358;2024-01-07T08:58:53;86579.63;;;6.83;69.93
8047;BME280;74083;42.516;23.358;2024-01-07T09:01:38;86589.75;;;6.91;70.37
8047;BME280;74083;42.516;23.358;2024-01-07T09:04:25;86582.25;;;6.91;70.12
8047;BME280;74083;42.516;23.358;2024-01-07T09:07:10;86586.97;;;6.94;69.99
8047;BME280;74083;42.516;23.358;2024-01-07T09:09:56;86587.25;;;6.91;69.76
8047;BME280;74083;42.516;23.358;2024-01-07T09:12:43;86586.59;;;6.89;69.78
8047;BME280;74083;42.516;23.358;2024-01-07T09:15:28;86593.19;;;6.90;69.37
8047;BME280;74083;42.516;23.358;2024-01-07T09:18:14;86599.22;;;6.97;69.37
8047;BME280;74083;42.516;23.358;2024-01-07T09:21:01;86591.16;;;7.03;69.21
8047;BME280;74083;42.516;23.358;2024-01-07T09:23:47;86586.28;;;7.01;69.13
8047;BME280;74083;42.516;23.358;2024-01-07T09:26:32;86591.53;;;7.08;69.28
8047;BME280;74083;42.516;23.358;2024-01-07T09:29:17;86592.47;;;7.07;69.69
8047;BME280;74083;42.516;23.358;2024-01-07T09:32:04;86589.25;;;7.14;69.70
8047;BME280;74083;42.516;23.358;2024-01-07T09:34:50;86595.56;;;7.18;70.11
8047;BME280;74083;42.516;23.358;2024-01-07T09:37:37;86576.34;;;7.19;69.30
8047;BME280;74083;42.516;23.358;2024-01-07T09:40:22;86572.50;;;7.24;69.22
8047;BME280;74083;42.516;23.358;2024-01-07T09:43:07;86582.63;;;7.23;68.49
8047;BME280;74083;42.516;23.358;2024-01-07T09:45:54;86585.69;;;7.17;68.70
8047;BME280;74083;42.516;23.358;2024-01-07T09:48:41;86584.25;;;7.14;67.97
8047;BME280;74083;42.516;23.358;2024-01-07T09:51:28;86577.53;;;7.15;67.47
8047;BME280;74083;42.516;23.358;2024-01-07T09:54:17;86580.47;;;7.10;67.73
8047;BME280;74083;42.516;23.358;2024-01-07T09:57:06;86586.78;;;7.05;68.08
8047;BME280;74083;42.516;23.358;2024-01-07T09:59:52;86590.25;;;7.04;68.11
8047;BME280;74083;42.516;23.358;2024-01-07T10:02:37;86593.38;;;7.06;68.01
8047;BME280;74083;42.516;23.358;2024-01-07T10:05:25;86589.69;;;7.10;68.76
8047;BME280;74083;42.516;23.358;2024-01-07T10:08:10;86586.03;;;7.04;69.01
8047;BME280;74083;42.516;23.358;2024-01-07T10:10:57;86581.50;;;7.08;68.17
8047;BME280;74083;42.516;23.358;2024-01-07T10:13:45;86593.38;;;7.06;68.64
8047;BME280;74083;42.516;23.358;2024-01-07T10:16:32;86581.50;;;7.08;68.72
8047;BME280;74083;42.516;23.358;2024-01-07T10:19:20;86583.09;;;7.09;68.93
8047;BME280;74083;42.516;23.358;2024-01-07T10:22:06;86583.38;;;7.06;68.79
8047;BME280;74083;42.516;23.358;2024-01-07T10:24:52;86574.38;;;7.13;68.78
8047;BME280;74083;42.516;23.358;2024-01-07T10:27:39;86569.09;;;7.16;69.46
8047;BME280;74083;42.516;23.358;2024-01-07T10:30:25;86573.56;;;7.22;69.46
8047;BME280;74083;42.516;23.358;2024-01-07T10:33:10;86567.50;;;7.15;68.87
8047;BME280;74083;42.516;23.358;2024-01-07T10:36:01;86567.50;;;7.15;69.19
8047;BME280;74083;42.516;23.358;2024-01-07T10:38:47;86565.94;;;7.14;69.20
8047;BME280;74083;42.516;23.358;2024-01-07T10:41:34;86568.81;;;7.19;69.10
8047;BME280;74083;42.516;23.358;2024-01-07T10:44:24;86571.22;;;7.11;68.96
8047;BME280;74083;42.516;23.358;2024-01-07T10:47:11;86574.66;;;7.10;68.95
8047;BME280;74083;42.516;23.358;2024-01-07T10:49:59;86574.66;;;7.10;69.03
8047;BME280;74083;42.516;23.358;2024-01-07T10:52:49;86569.66;;;7.10;69.60
8047;BME280;74083;42.516;23.358;2024-01-07T10:55:35;86566.00;;;7.04;69.68
8047;BME280;74083;42.516;23.358;2024-01-07T10:58:21;86568.06;;;7.09;69.50
8047;BME280;74083;42.516;23.358;2024-01-07T11:01:09;86569.00;;;7.08;69.17
8047;BME280;74083;42.516;23.358;2024-01-07T11:03:59;86569.94;;;7.07;69.78
8047;BME280;74083;42.516;23.358;2024-01-07T11:06:52;86582.72;;;7.04;69.65
8047;BME280;74083;42.516;23.358;2024-01-07T11:09:46;86582.84;;;7.02;70.26
8047;BME280;74083;42.516;23.358;2024-01-07T11:12:36;86580.34;;;7.02;69.48
8047;BME280;74083;42.516;23.358;2024-01-07T11:15:53;86575.50;;;7.01;69.37
8047;BME280;74083;42.516;23.358;2024-01-07T11:18:46;86574.69;;;7.00;69.13
8047;BME280;74083;42.516;23.358;2024-01-07T11:21:33;86572.59;;;6.96;69.28
8047;BME280;74083;42.516;23.358;2024-01-07T11:24:37;86575.88;;;6.96;69.02
8047;BME280;74083;42.516;23.358;2024-01-07T11:27:28;86589.47;;;6.94;69.08
8047;BME280;74083;42.516;23.358;2024-01-07T11:30:18;86580.25;;;6.94;69.03
8047;BME280;74083;42.516;23.358;2024-01-07T11:33:04;86585.25;;;6.94;69.00
8047;BME280;74083;42.516;23.358;2024-01-07T11:35:59;86588.13;;;6.99;69.33
8047;BME280;74083;42.516;23.358;2024-01-07T11:38:48;86592.63;;;6.96;69.02
8047;BME280;74083;42.516;23.358;2024-01-07T11:41:35;86586.56;;;6.98;69.19
8047;BME280;74083;42.516;23.358;2024-01-07T11:44:22;86590.13;;;6.96;69.20
8047;BME280;74083;42.516;23.358;2024-01-07T11:47:07;86583.56;;;6.95;69.77
8047;BME280;74083;42.516;23.358;2024-01-07T11:49:52;86585.63;;;6.99;69.35
8047;BME280;74083;42.516;23.358;2024-01-07T11:52:42;86585.78;;;6.98;69.47
8047;BME280;74083;42.516;23.358;2024-01-07T11:55:28;86588.28;;;6.98;69.73
8047;BME280;74083;42.516;23.358;2024-01-07T11:58:17;86587.50;;;6.97;69.57
8047;BME280;74083;42.516;23.358;2024-01-07T12:01:02;86577.31;;;6.99;69.72
8047;BME280;74083;42.516;23.358;2024-01-07T12:03:48;86582.59;;;6.96;69.99
8047;BME280;74083;42.516;23.358;2024-01-07T12:06:34;86590.63;;;6.99;70.07
8047;BME280;74083;42.516;23.358;2024-01-07T12:09:21;86596.44;;;7.00;70.09
8047;BME280;74083;42.516;23.358;2024-01-07T12:12:06;86589.72;;;7.00;70.01
8047;BME280;74083;42.516;23.358;2024-01-07T12:14:52;86593.81;;;7.01;70.04
8047;BME280;74083;42.516;23.358;2024-01-07T12:17:38;86586.28;;;7.01;70.13
8047;BME280;74083;42.516;23.358;2024-01-07T12:20:25;86593.66;;;7.03;70.53
8047;BME280;74083;42.516;23.358;2024-01-07T12:23:12;86589.84;;;6.99;70.94
8047;BME280;74083;42.516;23.358;2024-01-07T12:26:07;86592.06;;;7.02;70.81
8047;BME280;74083;42.516;23.358;2024-01-07T12:28:54;86595.38;;;7.02;70.85
8047;BME280;74083;42.516;23.358;2024-01-07T12:31:41;86590.59;;;7.09;70.34
8047;BME280;74083;42.516;23.358;2024-01-07T12:34:28;86593.91;;;7.09;70.56
8047;BME280;74083;42.516;23.358;2024-01-07T12:37:14;86600.34;;;7.12;70.16
8047;BME280;74083;42.516;23.358;2024-01-07T12:40:00;86596.13;;;7.12;70.49
8047;BME280;74083;42.516;23.358;2024-01-07T12:42:47;86591.13;;;7.12;70.46
8047;BME280;74083;42.516;23.358;2024-01-07T12:45:33;86601.53;;;7.08;70.55
8047;BME280;74083;42.516;23.358;2024-01-07T12:48:18;86594.41;;;7.13;70.26
8047;BME280;74083;42.516;23.358;2024-01-07T12:51:04;86592.09;;;7.29;68.96
8047;BME280;74083;42.516;23.358;2024-01-07T12:53:50;86597.28;;;7.18;69.60
8047;BME280;74083;42.516;23.358;2024-01-07T12:56:35;86607.84;;;7.12;70.40
8047;BME280;74083;42.516;23.358;2024-01-07T12:59:22;86609.81;;;7.18;69.96
8047;BME280;74083;42.516;23.358;2024-01-07T13:02:08;86604.44;;;7.13;70.00
8047;BME280;74083;42.516;23.358;2024-01-07T13:04:53;86603.22;;;7.17;69.77
8047;BME280;74083;42.516;23.358;2024-01-07T13:07:39;86609.66;;;7.19;69.64
8047;BME280;74083;42.516;23.358;2024-01-07T13:10:24;86609.78;;;7.27;69.41
8047;BME280;74083;42.516;23.358;2024-01-07T13:13:09;86604.97;;;7.34;68.30
8047;BME280;74083;42.516;23.358;2024-01-07T13:15:58;86607.75;;;7.31;68.69
8047;BME280;74083;42.516;23.358;2024-01-07T13:18:46;86609.09;;;7.25;68.56
8047;BME280;74083;42.516;23.358;2024-01-07T13:21:32;86619.56;;;7.21;69.17
8047;BME280;74083;42.516;23.358;2024-01-07T13:24:18;86614.81;;;7.18;69.68
8047;BME280;74083;42.516;23.358;2024-01-07T13:27:04;86616.56;;;7.08;70.29
8047;BME280;74083;42.516;23.358;2024-01-07T13:29:49;86615.78;;;7.07;70.43
8047;BME280;74083;42.516;23.358;2024-01-07T13:32:37;86614.81;;;7.18;69.40
8047;BME280;74083;42.516;23.358;2024-01-07T13:35:22;86612.84;;;7.21;69.14
8047;BME280;74083;42.516;23.358;2024-01-07T13:38:08;86620.34;;;7.21;69.54
8047;BME280;74083;42.516;23.358;2024-01-07T13:40:54;86608.72;;;7.30;68.69
8047;BME280;74083;42.516;23.358;2024-01-07T13:43:39;86608.50;;;7.14;69.82
8047;BME280;74083;42.516;23.358;2024-01-07T13:46:25;86602.28;;;7.18;69.70
8047;BME280;74083;42.516;23.358;2024-01-07T13:49:12;86604.16;;;7.16;69.86
8047;BME280;74083;42.516;23.358;2024-01-07T13:51:58;86605.19;;;7.13;70.25
8047;BME280;74083;42.516;23.358;2024-01-07T13:54:44;86600.69;;;7.26;69.16
8047;BME280;74083;42.516;23.358;2024-01-07T13:57:30;86607.13;;;7.29;68.85
8047;BME280;74083;42.516;23.358;2024-01-07T14:00:16;86609.91;;;7.26;69.57
8047;BME280;74083;42.516;23.358;2024-01-07T14:03:03;86609.22;;;7.33;68.81
8047;BME280;74083;42.516;23.358;2024-01-07T14:05:51;86603.94;;;7.37;68.04
8047;BME280;74083;42.516;23.358;2024-01-07T14:08:37;86610.66;;;7.36;68.43
8047;BME280;74083;42.516;23.358;2024-01-07T14:11:23;86614.34;;;7.32;68.38
8047;BME280;74083;42.516;23.358;2024-01-07T14:14:09;86620.56;;;7.28;68.89
8047;BME280;74083;42.516;23.358;2024-01-07T14:16:54;86623.06;;;7.28;68.84
8047;BME280;74083;42.516;23.358;2024-01-07T14:19:39;86618.84;;;7.28;69.37
8047;BME280;74083;42.516;23.358;2024-01-07T14:22:27;86628.22;;;7.26;69.39
8047;BME280;74083;42.516;23.358;2024-01-07T14:25:13;86629.66;;;7.29;69.49
8047;BME280;74083;42.516;23.358;2024-01-07T14:27:59;86630.09;;;7.24;69.97
8047;BME280;74083;42.516;23.358;2024-01-07T14:30:44;86629.13;;;7.25;70.14
8047;BME280;74083;42.516;23.358;2024-01-07T14:33:30;86637.59;;;7.24;69.75
8047;BME280;74083;42.516;23.358;2024-01-07T14:36:16;86631.91;;;7.22;69.99
8047;BME280;74083;42.516;23.358;2024-01-07T14:39:03;86634.56;;;7.21;70.10
8047;BME280;74083;42.516;23.358;2024-01-07T14:41:49;86635.13;;;7.15;70.51
8047;BME280;74083;42.516;23.358;2024-01-07T14:44:35;86640.50;;;7.20;69.98
8047;BME280;74083;42.516;23.358;2024-01-07T14:47:20;86642.25;;;7.10;71.08
8047;BME280;74083;42.516;23.358;2024-01-07T14:50:07;86644.63;;;7.02;71.97
8047;BME280;74083;42.516;23.358;2024-01-07T14:52:52;86644.25;;;7.06;71.78